Time;durP1;ratioP1;P1;durP2;ratioP2;P2;SDS_P1;SDS_P2;PMS_P1;PMS_P2;Temp;Humidity;BMP_temperature;BMP_pressure;BME280_temperature;BME280_humidity;BME280_pressure;Samples;Min_cycle;Max_cycle;Signal;HPM_P1;HPM_P2
2021/12/06 00:00:32;;;;;;;159.75;90.40;;;;;;;0.82;100.00;98107.19;2078310;28;20227;-77
2021/12/06 00:01:39;;;;;;;164.63;91.00;;;;;;;0.76;100.00;98095.09;2078503;28;20226;-77
2021/12/06 00:02:40;;;;;;;154.32;88.20;;;;;;;0.75;100.00;98101.38;2077813;28;20239;-76
2021/12/06 00:03:47;;;;;;;150.05;84.85;;;;;;;0.74;100.00;98097.19;2078942;28;20223;-76
2021/12/06 00:04:48;;;;;;;161.38;88.90;;;;;;;0.73;100.00;98092.97;2078925;28;20243;-75
2021/12/06 00:05:52;;;;;;;152.68;87.38;;;;;;;0.70;100.00;98096.91;2078079;28;20694;-75
2021/12/06 00:06:57;;;;;;;151.05;88.05;;;;;;;0.66;100.00;98090.59;2069990;28;20254;-75
2021/12/06 00:07:58;;;;;;;156.85;84.85;;;;;;;0.68;100.00;98098.97;2078014;28;20277;-75
2021/12/06 00:09:00;;;;;;;153.18;87.72;;;;;;;0.66;100.00;98092.41;2070139;28;20220;-75
2021/12/06 00:10:01;;;;;;;157.63;90.47;;;;;;;0.66;100.00;98095.03;2069985;28;20232;-75
2021/12/06 00:11:07;;;;;;;162.60;92.73;;;;;;;0.65;100.00;98093.47;2070259;28;20223;-75
2021/12/06 00:12:10;;;;;;;160.65;90.22;;;;;;;0.64;100.00;98092.69;2069982;28;20298;-75
2021/12/06 00:13:12;;;;;;;165.13;93.75;;;;;;;0.66;100.00;98087.16;2078134;28;20288;-75
2021/12/06 00:14:13;;;;;;;153.32;89.43;;;;;;;0.66;100.00;98095.84;2078293;28;20220;-75
2021/12/06 00:15:16;;;;;;;150.90;85.93;;;;;;;0.67;100.00;98091.38;2078870;28;20557;-75
2021/12/06 00:16:22;;;;;;;166.68;91.28;;;;;;;0.69;100.00;98097.94;2078049;28;20314;-75
2021/12/06 00:17:24;;;;;;;168.57;90.25;;;;;;;0.70;100.00;98098.75;2077633;28;20719;-76
2021/12/06 00:18:26;;;;;;;156.35;88.18;;;;;;;0.69;100.00;98094.53;2078226;28;20590;-76
2021/12/06 00:19:27;;;;;;;170.95;90.28;;;;;;;0.67;100.00;98092.16;2069829;28;20234;-76
2021/12/06 00:20:29;;;;;;;156.93;90.25;;;;;;;0.67;100.00;98094.78;2070109;28;20319;-76
2021/12/06 00:21:30;;;;;;;152.10;87.78;;;;;;;0.67;100.00;98094.00;2078091;28;20678;-77
2021/12/06 00:22:34;;;;;;;150.52;87.15;;;;;;;0.66;100.00;98097.66;2077993;28;20585;-76
2021/12/06 00:23:35;;;;;;;157.18;88.55;;;;;;;0.68;100.00;98106.06;2078140;28;20223;-76
2021/12/06 00:24:37;;;;;;;154.00;87.73;;;;;;;0.65;100.00;98104.75;2077910;28;20231;-76
2021/12/06 00:25:38;;;;;;;155.65;87.05;;;;;;;0.62;100.00;98101.88;2077662;28;20731;-76
2021/12/06 00:26:39;;;;;;;160.77;90.17;;;;;;;0.64;100.00;98097.94;2077811;28;20625;-75
2021/12/06 00:27:40;;;;;;;158.20;90.30;;;;;;;0.61;100.00;98097.63;2077873;28;20470;-82
2021/12/06 00:28:46;;;;;;;160.20;90.40;;;;;;;0.63;100.00;98100.81;2078058;28;20265;-77
2021/12/06 00:29:49;;;;;;;162.02;89.65;;;;;;;0.61;100.00;98101.06;2077791;28;20288;-76
2021/12/06 00:30:52;;;;;;;163.43;91.80;;;;;;;0.57;100.00;98098.16;2069894;28;20248;-76
2021/12/06 00:31:55;;;;;;;162.02;91.35;;;;;;;0.56;100.00;98095.78;2077582;28;20378;-76
2021/12/06 00:32:57;;;;;;;155.07;87.22;;;;;;;0.52;100.00;98087.63;2077927;28;20219;-77
2021/12/06 00:33:59;;;;;;;154.73;88.63;;;;;;;0.53;100.00;98094.47;2077985;28;20689;-76
2021/12/06 00:35:02;;;;;;;162.68;90.15;;;;;;;0.52;100.00;98089.44;2077882;28;20237;-76
2021/12/06 00:36:06;;;;;;;166.18;92.18;;;;;;;0.50;100.00;98094.97;2078019;28;20280;-77
2021/12/06 00:37:19;;;;;;;160.45;89.03;;;;;;;0.46;100.00;98088.66;2069751;28;20310;-75
2021/12/06 00:38:21;;;;;;;163.25;90.20;;;;;;;0.43;100.00;98090.97;2077847;28;20624;-76
2021/12/06 00:39:23;;;;;;;167.35;92.75;;;;;;;0.40;100.00;98099.38;2077463;28;20273;-76
2021/12/06 00:40:28;;;;;;;164.93;96.10;;;;;;;0.41;100.00;98100.94;2069633;28;20224;-75
2021/12/06 00:41:29;;;;;;;171.40;93.15;;;;;;;0.39;100.00;98093.31;2078166;28;20211;-76
2021/12/06 00:42:33;;;;;;;167.57;95.65;;;;;;;0.43;100.00;98101.47;2078019;28;20328;-76
2021/12/06 00:43:38;;;;;;;177.40;95.03;;;;;;;0.40;100.00;98102.78;2077670;28;20264;-76
2021/12/06 00:44:39;;;;;;;168.50;92.68;;;;;;;0.40;100.00;98104.59;2069761;28;20305;-76
2021/12/06 00:45:41;;;;;;;179.18;95.63;;;;;;;0.37;100.00;98097.25;2069553;28;20294;-76
2021/12/06 00:46:42;;;;;;;169.52;94.40;;;;;;;0.34;100.00;98095.91;2077749;28;20587;-76
2021/12/06 00:47:45;;;;;;;176.40;95.23;;;;;;;0.35;100.00;98094.88;2077853;28;20219;-76
2021/12/06 00:48:47;;;;;;;163.23;93.95;;;;;;;0.34;100.00;98098.53;2069995;28;20224;-76
2021/12/06 00:49:51;;;;;;;166.25;91.45;;;;;;;0.32;100.00;98092.75;2077870;28;20226;-76
2021/12/06 00:50:53;;;;;;;171.27;95.43;;;;;;;0.31;100.00;98091.19;2077253;28;20227;-75
2021/12/06 00:51:55;;;;;;;163.52;90.70;;;;;;;0.32;100.00;98092.75;2069853;28;20228;-76
2021/12/06 00:52:57;;;;;;;172.07;93.15;;;;;;;0.31;100.00;98093.78;2069735;28;20315;-76
2021/12/06 00:53:58;;;;;;;171.80;92.38;;;;;;;0.30;100.00;98096.69;2077791;28;20739;-75
2021/12/06 00:55:00;;;;;;;171.13;94.90;;;;;;;0.26;100.00;98094.56;2077907;28;20233;-76
2021/12/06 00:56:03;;;;;;;163.48;94.40;;;;;;;0.25;100.00;98102.66;2077949;28;20219;-76
2021/12/06 00:57:08;;;;;;;169.38;96.40;;;;;;;0.26;100.00;98094.56;2077783;28;20261;-76
2021/12/06 00:58:09;;;;;;;174.35;98.18;;;;;;;0.26;100.00;98099.00;2077434;28;20227;-76
2021/12/06 00:59:11;;;;;;;163.53;91.80;;;;;;;0.26;100.00;98104.25;2077822;28;20225;-76
2021/12/06 01:00:17;;;;;;;176.05;95.40;;;;;;;0.26;100.00;98099.81;2069607;28;20247;-76
2021/12/06 01:01:19;;;;;;;175.73;95.80;;;;;;;0.23;100.00;98091.66;2070241;28;20307;-76
2021/12/06 01:02:21;;;;;;;164.68;93.03;;;;;;;0.22;100.00;98090.06;2069728;28;20306;-76
2021/12/06 01:03:26;;;;;;;175.30;93.85;;;;;;;0.22;100.00;98087.44;2069284;28;20231;-75
2021/12/06 01:04:29;;;;;;;171.77;91.53;;;;;;;0.21;100.00;98091.13;2070139;28;20240;-76
2021/12/06 01:05:30;;;;;;;173.57;94.55;;;;;;;0.19;100.00;98087.97;2069760;28;20250;-76
2021/12/06 01:06:32;;;;;;;166.98;90.57;;;;;;;0.18;100.00;98096.88;2077854;28;20227;-76
2021/12/06 01:07:32;;;;;;;168.30;90.25;;;;;;;0.16;100.00;98091.84;2078654;28;20682;-77
2021/12/06 01:08:34;;;;;;;176.67;94.90;;;;;;;0.15;100.00;98090.28;2078559;28;20654;-76
2021/12/06 01:09:35;;;;;;;173.73;93.28;;;;;;;0.13;100.00;98088.97;2078581;28;20358;-76
2021/12/06 01:10:40;;;;;;;176.77;94.87;;;;;;;0.14;100.00;98091.31;2078603;28;20231;-76
2021/12/06 01:11:41;;;;;;;178.80;93.72;;;;;;;0.10;100.00;98084.22;2078338;28;20730;-76
2021/12/06 01:12:44;;;;;;;175.65;93.60;;;;;;;0.11;100.00;98097.09;2077871;28;20230;-76
2021/12/06 01:13:44;;;;;;;170.30;93.32;;;;;;;0.11;100.00;98091.06;2070019;28;20573;-75
2021/12/06 01:14:47;;;;;;;167.37;93.83;;;;;;;0.11;100.00;98088.44;2077727;28;20270;-76
2021/12/06 01:15:47;;;;;;;176.10;93.72;;;;;;;0.10;100.00;98090.25;2077659;28;20766;-76
2021/12/06 01:16:49;;;;;;;180.50;96.03;;;;;;;0.11;100.00;98096.28;2077899;28;20629;-76
2021/12/06 01:17:51;;;;;;;181.82;95.55;;;;;;;0.10;100.00;98094.72;2077780;28;21015;-76
2021/12/06 01:18:56;;;;;;;172.88;93.68;;;;;;;0.07;100.00;98103.06;2069443;28;20270;-75
2021/12/06 01:19:57;;;;;;;176.40;97.10;;;;;;;0.04;100.00;98106.19;2069797;28;20228;-76
2021/12/06 01:21:07;;;;;;;166.00;93.13;;;;;;;0.01;100.00;98114.59;2077844;28;20226;-76
2021/12/06 01:22:20;;;;;;;172.77;94.97;;;;;;;0.05;100.00;98118.28;2077627;28;20234;-76
2021/12/06 01:23:26;;;;;;;171.38;95.15;;;;;;;0.07;100.00;98116.19;2077717;28;20223;-75
2021/12/06 01:24:29;;;;;;;170.45;95.63;;;;;;;0.06;100.00;98111.97;2077340;28;20231;-76
2021/12/06 01:25:37;;;;;;;177.32;96.95;;;;;;;0.04;100.00;98114.84;2069993;28;20329;-76
2021/12/06 01:27:06;;;;;;;169.07;93.40;;;;;;;0.04;100.00;98114.06;2071350;28;21322;-76
2021/12/06 01:28:45;;;;;;;180.23;96.68;;;;;;;0.01;100.00;98101.47;2073717;28;20625;-76
2021/12/06 01:29:59;;;;;;;169.13;95.15;;;;;;;0.03;100.00;98099.38;2067871;28;20228;-76
2021/12/06 01:31:07;;;;;;;179.48;98.57;;;;;;;0.01;100.00;98099.63;2078309;28;20303;-76
2021/12/06 01:32:19;;;;;;;180.10;96.32;;;;;;;0.01;100.00;98096.22;2078934;28;20642;-75
2021/12/06 01:33:39;;;;;;;178.15;97.47;;;;;;;-0.03;100.00;98095.91;2072350;28;20365;-79
2021/12/06 01:40:00;;;;;;;173.23;94.90;;;;;;;-0.06;100.00;98085.94;2071810;28;20231;-76
2021/12/06 01:41:01;;;;;;;181.50;93.38;;;;;;;-0.04;100.00;98089.88;2063534;28;20237;-76
2021/12/06 01:42:06;;;;;;;193.85;97.15;;;;;;;-0.06;100.00;98086.72;2063264;28;20275;-76
2021/12/06 01:43:07;;;;;;;181.40;97.75;;;;;;;-0.06;100.00;98076.25;2077064;28;20292;-76
2021/12/06 01:44:12;;;;;;;191.55;99.70;;;;;;;-0.06;100.00;98081.50;2078877;28;20230;-77
2021/12/06 01:45:22;;;;;;;190.02;101.60;;;;;;;-0.06;100.00;98083.31;2072347;28;20224;-77
2021/12/06 01:46:26;;;;;;;186.35;99.60;;;;;;;-0.09;100.00;98074.13;2079007;28;20706;-76
2021/12/06 01:47:30;;;;;;;193.35;99.38;;;;;;;-0.09;100.00;98076.75;2079146;28;20582;-77
2021/12/06 01:48:31;;;;;;;186.23;101.20;;;;;;;-0.11;100.00;98073.56;2071451;28;20609;-76
2021/12/06 01:49:37;;;;;;;190.03;99.43;;;;;;;-0.09;100.00;98070.69;2070876;28;20303;-77
2021/12/06 01:50:40;;;;;;;186.32;98.40;;;;;;;-0.12;100.00;98060.72;2071226;28;20232;-76
2021/12/06 01:51:42;;;;;;;183.60;98.57;;;;;;;-0.12;100.00;98071.22;2071013;28;20240;-76
2021/12/06 01:52:48;;;;;;;184.18;99.68;;;;;;;-0.09;100.00;98066.28;2071042;28;20224;-77
2021/12/06 01:53:52;;;;;;;185.02;101.25;;;;;;;-0.10;100.00;98072.53;2071553;28;20672;-75
2021/12/06 01:54:55;;;;;;;179.32;100.07;;;;;;;-0.11;100.00;98067.53;2070938;28;20236;-77
2021/12/06 01:55:57;;;;;;;190.70;101.20;;;;;;;-0.08;100.00;98074.94;2071161;28;20232;-76
2021/12/06 01:56:59;;;;;;;177.40;98.27;;;;;;;-0.12;100.00;98074.63;2070876;28;20299;-76
2021/12/06 01:58:01;;;;;;;187.65;100.13;;;;;;;-0.11;100.00;98076.19;2079104;28;20223;-76
2021/12/06 01:59:04;;;;;;;194.40;100.35;;;;;;;-0.08;100.00;98077.53;2071143;28;20224;-76
2021/12/06 02:00:10;;;;;;;196.10;99.05;;;;;;;-0.07;100.00;98081.75;2071141;28;20224;-76
2021/12/06 02:01:17;;;;;;;181.43;97.00;;;;;;;-0.11;100.00;98084.06;2079142;28;20580;-76
2021/12/06 02:02:19;;;;;;;196.93;101.20;;;;;;;-0.10;100.00;98084.84;2079115;28;20724;-76
2021/12/06 02:03:21;;;;;;;184.30;98.75;;;;;;;-0.11;100.00;98085.88;2071057;28;20270;-77
2021/12/06 02:04:23;;;;;;;183.27;101.05;;;;;;;-0.12;100.00;98087.72;2078640;28;20223;-76
2021/12/06 02:05:25;;;;;;;191.75;100.20;;;;;;;-0.11;100.00;98088.50;2078980;28;20304;-76
2021/12/06 02:06:28;;;;;;;195.20;101.55;;;;;;;-0.13;100.00;98086.16;2070961;28;20239;-76
2021/12/06 02:07:32;;;;;;;196.52;98.90;;;;;;;-0.11;100.00;98085.88;2071166;28;20223;-76
2021/12/06 02:08:33;;;;;;;195.80;101.70;;;;;;;-0.11;100.00;98086.69;2071198;28;20227;-77
2021/12/06 02:09:37;;;;;;;189.07;100.20;;;;;;;-0.12;100.00;98082.47;2079150;28;20277;-76
2021/12/06 02:10:43;;;;;;;183.25;98.80;;;;;;;-0.13;100.00;98086.16;2071058;28;20239;-76
2021/12/06 02:11:52;;;;;;;186.77;100.25;;;;;;;-0.14;100.00;98081.94;2071646;28;20220;-76
2021/12/06 02:12:54;;;;;;;184.40;101.07;;;;;;;-0.12;100.00;98079.84;2070399;28;20228;-75
2021/12/06 02:14:03;;;;;;;188.85;101.28;;;;;;;-0.13;100.00;98080.13;2071034;28;20677;-76
2021/12/06 02:15:18;;;;;;;192.57;103.63;;;;;;;-0.12;100.00;98082.47;2072012;28;20223;-76
2021/12/06 02:16:26;;;;;;;189.80;101.28;;;;;;;-0.12;100.00;98092.97;2072429;28;20300;-76
2021/12/06 02:17:31;;;;;;;196.23;101.25;;;;;;;-0.14;100.00;98087.19;2071282;28;20345;-76
2021/12/06 02:18:42;;;;;;;183.38;98.93;;;;;;;-0.13;100.00;98087.97;2071319;28;20224;-76
2021/12/06 02:19:49;;;;;;;201.68;102.65;;;;;;;-0.12;100.00;98100.84;2078535;28;20242;-76
2021/12/06 02:21:01;;;;;;;195.15;99.15;;;;;;;-0.13;100.00;98101.88;2078955;28;20559;-76
2021/12/06 02:22:05;;;;;;;190.00;103.10;;;;;;;-0.14;100.00;98092.44;2078929;28;20220;-76
2021/12/06 02:23:06;;;;;;;195.93;106.35;;;;;;;-0.14;100.00;98099.50;2079331;28;20227;-76
2021/12/06 02:24:10;;;;;;;204.90;105.00;;;;;;;-0.12;100.00;98111.31;2078726;28;20273;-76
2021/12/06 02:25:15;;;;;;;192.70;104.68;;;;;;;-0.11;100.00;98106.88;2078865;28;20229;-77
2021/12/06 02:26:18;;;;;;;196.57;102.82;;;;;;;-0.12;100.00;98111.31;2071356;28;20265;-77
2021/12/06 02:27:24;;;;;;;191.88;105.47;;;;;;;-0.11;100.00;98112.09;2070982;28;20598;-77
2021/12/06 02:28:26;;;;;;;195.52;103.00;;;;;;;-0.12;100.00;98108.69;2071039;28;20602;-76
2021/12/06 02:29:29;;;;;;;205.63;103.85;;;;;;;-0.10;100.00;98113.69;2070842;28;20228;-76
2021/12/06 02:30:30;;;;;;;209.75;104.45;;;;;;;-0.13;100.00;98106.34;2070793;28;20228;-76
2021/12/06 02:31:32;;;;;;;203.63;111.88;;;;;;;-0.12;100.00;98108.69;2070729;28;20221;-77
2021/12/06 02:32:35;;;;;;;208.30;111.35;;;;;;;-0.12;100.00;98108.69;2071098;28;20274;-77
2021/12/06 02:33:37;;;;;;;215.60;107.32;;;;;;;-0.11;100.00;98106.88;2070897;28;20236;-76
2021/12/06 02:34:39;;;;;;;207.65;108.38;;;;;;;-0.12;100.00;98098.22;2070281;28;20589;-76
2021/12/06 02:35:42;;;;;;;203.07;108.55;;;;;;;-0.07;100.00;98106.13;2070890;28;20216;-76
2021/12/06 02:36:46;;;;;;;196.77;106.45;;;;;;;-0.08;100.00;98096.69;2078782;28;20223;-76
2021/12/06 02:37:48;;;;;;;198.48;106.28;;;;;;;-0.06;100.00;98102.47;2078752;28;20612;-77
2021/12/06 02:38:49;;;;;;;211.18;110.25;;;;;;;-0.07;100.00;98106.13;2078540;28;20248;-77
2021/12/06 02:39:52;;;;;;;209.80;109.93;;;;;;;-0.05;100.00;98092.75;2070449;28;20224;-77
2021/12/06 02:40:53;;;;;;;205.35;103.70;;;;;;;-0.04;100.00;98095.13;2070534;28;21038;-76
2021/12/06 02:41:56;;;;;;;191.53;106.60;;;;;;;-0.02;100.00;98092.25;2078818;28;20636;-76
2021/12/06 02:43:00;;;;;;;186.98;105.75;;;;;;;-0.05;100.00;98093.56;2078715;28;20235;-76
2021/12/06 02:44:03;;;;;;;192.98;102.65;;;;;;;-0.03;100.00;98094.09;2070796;28;20343;-77
2021/12/06 02:45:06;;;;;;;199.95;103.22;;;;;;;0.00;100.00;98098.06;2070825;28;20255;-77
2021/12/06 02:46:08;;;;;;;197.63;103.20;;;;;;;-0.05;100.00;98096.19;2078868;28;20705;-76
2021/12/06 02:47:09;;;;;;;181.90;99.35;;;;;;;-0.02;100.00;98100.13;2078317;28;20769;-76
2021/12/06 02:48:12;;;;;;;201.97;97.87;;;;;;;-0.01;100.00;98112.97;2070627;28;20623;-76
2021/12/06 02:49:15;;;;;;;186.15;99.15;;;;;;;0.01;100.00;98114.59;2078699;28;20219;-77
2021/12/06 02:50:16;;;;;;;194.48;103.32;;;;;;;0.01;100.00;98115.38;2078711;28;20294;-77
2021/12/06 02:51:19;;;;;;;184.93;100.93;;;;;;;0.02;100.00;98108.28;2078754;28;20247;-77
2021/12/06 02:52:21;;;;;;;183.02;99.47;;;;;;;0.04;100.00;98114.06;2070688;28;20224;-76
2021/12/06 02:53:25;;;;;;;183.55;101.90;;;;;;;0.04;100.00;98114.06;2070170;28;20250;-76
2021/12/06 02:54:27;;;;;;;180.70;97.13;;;;;;;0.03;100.00;98112.50;2070885;28;20232;-76
2021/12/06 02:55:34;;;;;;;160.02;95.25;;;;;;;0.07;100.00;98110.94;2070457;28;20599;-76
2021/12/06 02:56:50;;;;;;;173.52;94.97;;;;;;;0.06;100.00;98115.38;2070955;28;20231;-76
2021/12/06 02:57:55;;;;;;;164.50;89.15;;;;;;;0.08;100.00;98123.78;2066362;28;20234;-76
2021/12/06 02:58:59;;;;;;;159.80;85.43;;;;;;;0.07;100.00;98116.19;2063926;28;20220;-76
2021/12/06 03:00:07;;;;;;;159.07;91.18;;;;;;;0.06;100.00;98115.38;2071192;28;20639;-76
2021/12/06 03:01:12;;;;;;;153.88;85.93;;;;;;;0.11;100.00;98122.53;2070212;28;20308;-76
2021/12/06 03:02:22;;;;;;;146.48;81.43;;;;;;;0.11;100.00;98114.66;2067025;28;20554;-76
2021/12/06 03:03:26;;;;;;;143.18;81.22;;;;;;;0.11;100.00;98115.44;2067185;28;20587;-76
2021/12/06 03:04:28;;;;;;;149.38;81.22;;;;;;;0.11;100.00;98118.06;2070718;28;20317;-76
2021/12/06 03:05:29;;;;;;;144.38;81.05;;;;;;;0.08;100.00;98112.50;2070159;28;20694;-76
2021/12/06 03:06:31;;;;;;;148.23;85.20;;;;;;;0.11;100.00;98112.81;2070590;28;20598;-76
2021/12/06 03:07:36;;;;;;;153.30;86.57;;;;;;;0.11;100.00;98110.19;2070485;28;20286;-76
2021/12/06 03:08:40;;;;;;;145.38;84.65;;;;;;;0.11;100.00;98109.41;2062541;28;20232;-76
2021/12/06 03:09:42;;;;;;;161.40;87.55;;;;;;;0.11;100.00;98109.41;2070892;28;23351;-76
2021/12/06 03:10:47;;;;;;;154.25;88.93;;;;;;;0.09;100.00;98103.59;2070468;28;20235;-76
2021/12/06 03:11:50;;;;;;;151.63;87.50;;;;;;;0.09;100.00;98101.78;2078585;28;20314;-76
2021/12/06 03:12:51;;;;;;;152.52;89.88;;;;;;;0.09;100.00;98098.34;2078387;28;20223;-76
2021/12/06 03:13:53;;;;;;;142.02;88.30;;;;;;;0.11;100.00;98104.16;2070042;28;20271;-76
2021/12/06 03:14:57;;;;;;;148.45;88.55;;;;;;;0.12;100.00;98108.38;2070550;28;20224;-76
2021/12/06 03:16:00;;;;;;;149.07;85.50;;;;;;;0.13;100.00;98107.31;2079011;28;20219;-76
2021/12/06 03:17:03;;;;;;;158.07;86.00;;;;;;;0.14;100.00;98111.50;2078596;28;20224;-76
2021/12/06 03:18:07;;;;;;;151.85;84.35;;;;;;;0.11;100.00;98098.91;2070516;28;20224;-75
2021/12/06 03:19:09;;;;;;;152.43;85.00;;;;;;;0.12;100.00;98100.50;2078512;28;20223;-75
2021/12/06 03:20:13;;;;;;;152.57;84.47;;;;;;;0.15;100.00;98107.84;2078488;28;20596;-75
2021/12/06 03:21:17;;;;;;;157.57;89.15;;;;;;;0.12;100.00;98105.75;2070785;28;20220;-76
2021/12/06 03:22:18;;;;;;;151.18;87.70;;;;;;;0.14;100.00;98108.91;2070491;28;20257;-76
2021/12/06 03:23:26;;;;;;;154.95;85.78;;;;;;;0.12;100.00;98101.28;2070433;28;20223;-75
2021/12/06 03:24:28;;;;;;;157.00;87.18;;;;;;;0.12;100.00;98103.91;2078520;28;20665;-76
2021/12/06 03:25:30;;;;;;;149.25;85.60;;;;;;;0.13;100.00;98102.88;2070259;28;20228;-76
2021/12/06 03:26:32;;;;;;;150.18;84.68;;;;;;;0.15;100.00;98099.97;2070236;28;20296;-76
2021/12/06 03:27:34;;;;;;;153.00;84.20;;;;;;;0.15;100.00;98099.97;2078441;28;20227;-77
2021/12/06 03:28:36;;;;;;;145.85;82.47;;;;;;;0.14;100.00;98095.78;2078429;28;20664;-76
2021/12/06 03:29:38;;;;;;;156.65;85.22;;;;;;;0.14;100.00;98095.78;2077938;28;20227;-76
2021/12/06 03:30:39;;;;;;;151.48;84.22;;;;;;;0.14;100.00;98098.41;2070019;28;20235;-76
2021/12/06 03:31:43;;;;;;;152.30;86.90;;;;;;;0.13;100.00;98088.97;2078347;28;20729;-76
2021/12/06 03:32:45;;;;;;;149.85;86.55;;;;;;;0.12;100.00;98087.38;2070533;28;20228;-77
2021/12/06 03:33:49;;;;;;;156.83;88.10;;;;;;;0.15;100.00;98089.50;2070282;28;20223;-76
2021/12/06 03:34:51;;;;;;;155.93;86.22;;;;;;;0.16;100.00;98088.44;2078602;28;20311;-76
2021/12/06 03:35:53;;;;;;;151.25;87.07;;;;;;;0.18;100.00;98083.75;2078172;28;20230;-76
2021/12/06 03:36:59;;;;;;;154.93;85.45;;;;;;;0.18;100.00;98081.13;2070161;28;20250;-76
2021/12/06 03:38:01;;;;;;;158.93;87.40;;;;;;;0.20;100.00;98085.09;2070653;28;20255;-76
2021/12/06 03:39:06;;;;;;;160.25;88.53;;;;;;;0.17;100.00;98080.31;2074092;28;20666;-75
2021/12/06 03:40:08;;;;;;;162.32;86.20;;;;;;;0.18;100.00;98081.13;2078101;28;20294;-75
2021/12/06 03:41:12;;;;;;;153.75;87.32;;;;;;;0.16;100.00;98081.38;2078387;28;20223;-76
2021/12/06 03:42:16;;;;;;;176.32;92.15;;;;;;;0.15;100.00;98081.63;2070641;28;20228;-76
2021/12/06 03:43:19;;;;;;;157.88;86.53;;;;;;;0.15;100.00;98089.50;2070509;28;20224;-76
2021/12/06 03:44:22;;;;;;;163.80;86.45;;;;;;;0.15;100.00;98086.88;2078101;28;20247;-76
2021/12/06 03:45:26;;;;;;;155.50;84.70;;;;;;;0.15;100.00;98084.25;2069970;28;20228;-76
2021/12/06 03:46:31;;;;;;;156.25;86.03;;;;;;;0.12;100.00;98082.13;2070422;28;20706;-76
2021/12/06 03:47:33;;;;;;;167.75;91.72;;;;;;;0.09;100.00;98075.56;2070697;28;20232;-76
2021/12/06 03:48:35;;;;;;;171.55;86.78;;;;;;;0.13;100.00;98084.50;2078255;28;20598;-77
2021/12/06 03:49:38;;;;;;;161.05;85.88;;;;;;;0.15;100.00;98092.13;2069315;28;20224;-75
2021/12/06 03:50:40;;;;;;;167.90;87.78;;;;;;;0.15;100.00;98092.13;2070156;28;20228;-76
2021/12/06 03:51:45;;;;;;;171.90;87.85;;;;;;;0.11;100.00;98085.81;2078218;28;20235;-76
2021/12/06 03:52:46;;;;;;;162.32;85.50;;;;;;;0.10;100.00;98085.00;2070532;28;20311;-76
2021/12/06 03:53:48;;;;;;;172.30;86.77;;;;;;;0.07;100.00;98082.09;2078185;28;20223;-76
2021/12/06 03:54:51;;;;;;;177.13;93.50;;;;;;;0.11;100.00;98081.34;2078277;28;20736;-76
2021/12/06 03:55:54;;;;;;;169.63;88.28;;;;;;;0.12;100.00;98082.13;2077888;28;20250;-76
2021/12/06 03:56:56;;;;;;;167.10;88.10;;;;;;;0.12;100.00;98087.38;2078313;28;20223;-76
2021/12/06 03:58:01;;;;;;;169.30;89.57;;;;;;;0.12;100.00;98082.94;2078068;28;20587;-77
2021/12/06 03:59:03;;;;;;;171.73;92.05;;;;;;;0.12;100.00;98087.38;2070662;28;20231;-76
2021/12/06 04:00:07;;;;;;;178.20;91.78;;;;;;;0.11;100.00;98089.22;2078333;28;20748;-76
2021/12/06 04:01:14;;;;;;;168.32;94.53;;;;;;;0.12;100.00;98090.78;2078656;28;20748;-77
2021/12/06 04:02:17;;;;;;;172.88;93.75;;;;;;;0.13;100.00;98083.72;2078184;28;20239;-76
2021/12/06 04:03:21;;;;;;;172.30;91.05;;;;;;;0.12;100.00;98079.53;2070093;28;20235;-76
2021/12/06 04:04:23;;;;;;;185.88;96.57;;;;;;;0.14;100.00;98091.31;2077932;28;20261;-75
2021/12/06 04:05:24;;;;;;;172.93;92.00;;;;;;;0.11;100.00;98091.84;2078909;28;20615;-76
2021/12/06 04:06:27;;;;;;;187.63;94.65;;;;;;;0.11;100.00;98091.84;2078057;28;20269;-76
2021/12/06 04:07:28;;;;;;;200.25;97.70;;;;;;;0.13;100.00;98095.00;2078072;28;20243;-76
2021/12/06 04:08:30;;;;;;;196.65;97.10;;;;;;;0.12;100.00;98092.63;2077972;28;20258;-76
2021/12/06 04:09:32;;;;;;;183.05;93.28;;;;;;;0.09;100.00;98088.69;2070124;28;20228;-76
2021/12/06 04:10:36;;;;;;;192.90;96.97;;;;;;;0.10;100.00;98098.13;2077977;28;20228;-76
2021/12/06 04:11:39;;;;;;;196.50;101.20;;;;;;;0.13;100.00;98091.59;2069684;28;20255;-76
2021/12/06 04:12:42;;;;;;;201.27;98.40;;;;;;;0.13;100.00;98083.72;2070011;28;20634;-76
2021/12/06 04:13:44;;;;;;;197.23;100.32;;;;;;;0.10;100.00;98092.88;2070368;28;20625;-76
2021/12/06 04:14:47;;;;;;;197.30;101.07;;;;;;;0.13;100.00;98094.22;2078211;28;20277;-76
2021/12/06 04:15:48;;;;;;;195.68;103.50;;;;;;;0.14;100.00;98101.81;2070120;28;20231;-76
2021/12/06 04:16:51;;;;;;;201.07;102.47;;;;;;;0.17;100.00;98108.38;2078104;28;20243;-76
2021/12/06 04:17:52;;;;;;;197.35;103.78;;;;;;;0.12;100.00;98103.91;2077711;28;20234;-76
2021/12/06 04:18:54;;;;;;;203.90;102.63;;;;;;;0.15;100.00;98111.25;2069754;28;20229;-76
2021/12/06 04:19:56;;;;;;;200.23;97.72;;;;;;;0.16;100.00;98120.72;2077942;28;20227;-76
2021/12/06 04:20:59;;;;;;;187.27;96.00;;;;;;;0.14;100.00;98119.38;2077967;28;20227;-76
2021/12/06 04:21:59;;;;;;;183.25;96.18;;;;;;;0.18;100.00;98130.97;2070229;28;20224;-76
2021/12/06 04:23:02;;;;;;;193.38;97.75;;;;;;;0.16;100.00;98125.16;2078325;28;20284;-77
2021/12/06 04:24:04;;;;;;;189.50;99.03;;;;;;;0.15;100.00;98121.75;2069997;28;20255;-77
2021/12/06 04:25:09;;;;;;;184.57;100.47;;;;;;;0.16;100.00;98119.91;2077973;28;20238;-76
2021/12/06 04:26:12;;;;;;;209.18;101.00;;;;;;;0.16;100.00;98109.44;2070943;28;20714;-76
2021/12/06 04:27:18;;;;;;;206.73;101.90;;;;;;;0.17;100.00;98100.50;2061920;28;20224;-76
2021/12/06 04:28:22;;;;;;;198.65;101.57;;;;;;;0.17;100.00;98097.88;2070541;28;20602;-76
2021/12/06 04:29:24;;;;;;;189.63;98.65;;;;;;;0.17;100.00;98098.69;2069446;28;20230;-75
2021/12/06 04:30:25;;;;;;;187.55;98.25;;;;;;;0.17;100.00;98113.63;2069795;28;20341;-76
2021/12/06 04:31:30;;;;;;;202.02;100.10;;;;;;;0.15;100.00;98120.97;2070011;28;20266;-76
2021/12/06 04:32:32;;;;;;;189.73;100.18;;;;;;;0.16;100.00;98135.66;2078100;28;20310;-76
2021/12/06 04:33:34;;;;;;;188.43;98.47;;;;;;;0.18;100.00;98151.94;2077926;28;20655;-76
2021/12/06 04:34:35;;;;;;;197.43;101.45;;;;;;;0.11;100.00;98143.50;2070078;28;20247;-76
2021/12/06 04:35:37;;;;;;;194.20;99.27;;;;;;;0.17;100.00;98148.50;2069862;28;20232;-76
2021/12/06 04:36:43;;;;;;;181.52;95.00;;;;;;;0.18;100.00;98149.31;2069767;28;20455;-76
2021/12/06 04:37:44;;;;;;;187.45;95.88;;;;;;;0.18;100.00;98141.47;2070058;28;20786;-76
2021/12/06 04:38:46;;;;;;;184.30;96.80;;;;;;;0.21;100.00;98139.13;2069912;28;20643;-76
2021/12/06 04:39:48;;;;;;;176.95;93.18;;;;;;;0.21;100.00;98138.31;2078038;28;20265;-77
2021/12/06 04:40:52;;;;;;;181.52;90.30;;;;;;;0.20;100.00;98134.13;2077888;28;20277;-76
2021/12/06 04:41:55;;;;;;;181.93;92.53;;;;;;;0.17;100.00;98129.38;2069887;28;20311;-76
2021/12/06 04:42:57;;;;;;;172.50;91.30;;;;;;;0.15;100.00;98129.63;2069959;28;20293;-76
2021/12/06 04:43:59;;;;;;;183.82;94.05;;;;;;;0.16;100.00;98125.16;2069560;28;20751;-77
2021/12/06 04:45:00;;;;;;;190.25;94.22;;;;;;;0.16;100.00;98119.91;2069879;28;20231;-76
2021/12/06 04:46:04;;;;;;;195.30;95.90;;;;;;;0.17;100.00;98121.50;2070001;28;20246;-76
2021/12/06 04:47:06;;;;;;;188.32;91.10;;;;;;;0.17;100.00;98129.38;2069972;28;20256;-76
2021/12/06 04:48:13;;;;;;;184.80;94.03;;;;;;;0.16;100.00;98127.78;2069546;28;20734;-75
2021/12/06 04:49:15;;;;;;;185.93;92.18;;;;;;;0.15;100.00;98129.63;2070362;28;20235;-75
2021/12/06 04:50:18;;;;;;;192.07;92.90;;;;;;;0.20;100.00;98140.16;2069857;28;20230;-76
2021/12/06 04:51:19;;;;;;;193.70;95.22;;;;;;;0.22;100.00;98145.16;2077766;28;20621;-75
2021/12/06 04:52:21;;;;;;;183.27;92.97;;;;;;;0.20;100.00;98148.03;2069795;28;20228;-76
2021/12/06 04:53:27;;;;;;;186.45;94.15;;;;;;;0.23;100.00;98141.47;2077214;28;20302;-75